createdAt,value
2023-04-21T00:00:39.302Z,21.00
2023-04-21T00:03:23.632Z,20.60
2023-04-21T00:06:04.858Z,26.60
2023-04-21T00:08:43.641Z,21.00
2023-04-21T00:11:23.640Z,20.30
2023-04-21T00:14:03.175Z,45.90
2023-04-21T00:19:13.750Z,22.30
2023-04-21T00:21:43.174Z,20.90
2023-04-21T00:24:33.552Z,20.70
2023-04-21T00:27:12.261Z,43.60
2023-04-21T00:29:55.784Z,127.20
2023-04-21T00:32:40.268Z,51.70
2023-04-21T00:35:25.985Z,27.40
2023-04-21T00:37:56.669Z,31.00
2023-04-21T00:40:41.734Z,26.50
2023-04-21T00:43:14.071Z,22.20
2023-04-21T00:45:58.817Z,27.30
2023-04-21T00:48:30.881Z,25.90
2023-04-21T00:51:10.792Z,22.50
2023-04-21T00:53:51.280Z,20.80
2023-04-21T00:56:37.244Z,20.50
2023-04-21T00:59:14.822Z,25.40
2023-04-21T01:01:58.294Z,24.90
2023-04-21T01:04:41.207Z,17.80
2023-04-21T01:07:20.036Z,24.30
2023-04-21T01:10:08.788Z,25.00
2023-04-21T01:12:53.720Z,19.40
2023-04-21T01:15:42.833Z,21.20
2023-04-21T01:18:21.906Z,19.80
2023-04-21T01:21:10.515Z,18.80
2023-04-21T01:23:51.877Z,16.80
2023-04-21T01:26:36.261Z,18.70
2023-04-21T01:29:11.447Z,23.80
2023-04-21T01:32:00.235Z,21.30
2023-04-21T01:34:39.976Z,21.10
2023-04-21T01:37:27.953Z,19.70
2023-04-21T01:40:13.069Z,20.00
2023-04-21T01:42:46.752Z,18.30
2023-04-21T01:45:28.230Z,19.10
2023-04-21T01:48:07.501Z,27.00
2023-04-21T01:50:41.889Z,18.40
2023-04-21T01:53:25.986Z,29.00
2023-04-21T01:56:01.320Z,20.50
2023-04-21T01:58:43.427Z,16.70
2023-04-21T02:01:17.634Z,19.40
2023-04-21T02:04:01.208Z,16.40
2023-04-21T02:06:39.375Z,18.50
2023-04-21T02:09:11.388Z,18.90
2023-04-21T02:11:47.384Z,20.60
2023-04-21T02:14:19.746Z,17.80
2023-04-21T02:16:54.158Z,24.00
2023-04-21T02:19:37.602Z,17.40
2023-04-21T02:22:14.308Z,32.80
2023-04-21T02:24:56.639Z,24.00
2023-04-21T02:30:18.578Z,22.20
2023-04-21T02:32:58.036Z,18.70
2023-04-21T02:35:33.907Z,21.00
2023-04-21T02:38:08.506Z,21.00
2023-04-21T02:40:43.632Z,18.50
2023-04-21T02:43:30.188Z,18.50
2023-04-21T02:46:14.586Z,17.30
2023-04-21T02:49:22.060Z,20.00
2023-04-21T02:52:07.165Z,18.80
2023-04-21T02:54:42.786Z,26.70
2023-04-21T02:57:20.152Z,18.00
2023-04-21T02:59:54.589Z,22.10
2023-04-21T03:02:26.933Z,20.80
2023-04-21T03:05:01.894Z,22.70
2023-04-21T03:07:38.395Z,24.70
2023-04-21T03:10:19.872Z,25.50
2023-04-21T03:12:53.566Z,22.80
2023-04-21T03:15:37.197Z,21.60
2023-04-21T03:18:36.004Z,31.10
2023-04-21T03:21:08.903Z,23.80
2023-04-21T03:23:47.305Z,28.30
2023-04-21T03:26:32.721Z,23.70
2023-04-21T03:29:16.117Z,23.20
2023-04-21T03:31:50.762Z,24.90
2023-04-21T03:34:27.541Z,33.00
2023-04-21T03:40:12.370Z,42.70
2023-04-21T03:43:00.512Z,33.80
2023-04-21T03:45:52.363Z,26.30
2023-04-21T03:48:42.061Z,28.60
2023-04-21T03:51:43.498Z,32.40
2023-04-21T03:54:24.384Z,35.10
2023-04-21T03:57:07.726Z,25.60
2023-04-21T03:59:51.257Z,25.60
2023-04-21T04:02:55.399Z,22.70
2023-04-21T04:05:46.038Z,24.60
2023-04-21T04:08:40.731Z,33.10
2023-04-21T04:11:28.123Z,26.10
2023-04-21T04:14:15.494Z,25.20
2023-04-21T04:17:08.543Z,20.90
2023-04-21T04:20:09.323Z,24.20
2023-04-21T04:22:56.743Z,19.90
2023-04-21T04:25:40.194Z,22.90
2023-04-21T04:28:10.270Z,19.90
2023-04-21T04:30:51.757Z,20.60
2023-04-21T04:33:33.411Z,27.10
2023-04-21T04:39:24.774Z,26.40
2023-04-21T04:42:12.051Z,19.40
2023-04-21T04:44:55.301Z,20.50
2023-04-21T04:47:42.605Z,22.00
2023-04-21T04:50:24.244Z,23.50
2023-04-21T04:53:17.770Z,33.00
2023-04-21T04:56:07.368Z,24.80
2023-04-21T05:01:51.385Z,20.40
2023-04-21T05:04:37.207Z,19.40
2023-04-21T05:07:12.226Z,23.80
2023-04-21T05:10:00.946Z,20.30
2023-04-21T05:12:39.542Z,22.20
2023-04-21T05:15:14.652Z,21.30
2023-04-21T05:17:57.290Z,25.60
2023-04-21T05:20:46.462Z,20.30
2023-04-21T05:23:26.708Z,19.40
2023-04-21T05:26:11.399Z,26.30
2023-04-21T05:28:54.565Z,17.80
2023-04-21T05:31:41.187Z,23.80
2023-04-21T05:34:32.337Z,18.30
2023-04-21T05:37:08.206Z,20.40
2023-04-21T05:40:01.503Z,14.90
2023-04-21T05:42:49.280Z,21.20
2023-04-21T05:45:31.156Z,16.70
2023-04-21T05:50:59.801Z,14.60
2023-04-21T05:53:38.374Z,18.20
2023-04-21T05:56:28.554Z,13.90
2023-04-21T05:59:21.441Z,15.40
2023-04-21T06:02:01.897Z,13.40
2023-04-21T06:04:38.195Z,13.30
2023-04-21T06:07:45.649Z,24.70
2023-04-21T06:10:26.719Z,17.10
2023-04-21T06:13:10.052Z,22.00
2023-04-21T06:15:56.374Z,16.50
2023-04-21T06:18:31.287Z,17.10
2023-04-21T06:21:18.245Z,18.60
2023-04-21T06:23:52.512Z,21.20
2023-04-21T06:26:46.079Z,18.00
2023-04-21T06:29:32.583Z,17.30
2023-04-21T06:32:08.800Z,16.20
2023-04-21T06:34:53.793Z,33.60
2023-04-21T06:37:30.446Z,14.60
2023-04-21T06:40:33.600Z,14.00
2023-04-21T06:43:16.104Z,15.10
2023-04-21T06:46:11.400Z,14.90
2023-04-21T06:48:46.563Z,16.50
2023-04-21T06:51:37.561Z,18.10
2023-04-21T06:54:10.981Z,18.40
2023-04-21T06:56:45.550Z,13.00
2023-04-21T06:59:35.421Z,12.50
2023-04-21T07:02:15.922Z,12.30
2023-04-21T07:04:47.173Z,18.40
2023-04-21T07:07:28.886Z,13.60
2023-04-21T07:10:06.175Z,13.00
2023-04-21T07:12:36.154Z,16.80
2023-04-21T07:15:12.981Z,29.60
2023-04-21T07:17:45.690Z,10.80
2023-04-21T07:20:14.943Z,12.20
2023-04-21T07:22:53.186Z,12.50
2023-04-21T07:25:33.324Z,10.80
2023-04-21T07:28:15.909Z,12.50
2023-04-21T07:30:49.968Z,11.50
2023-04-21T07:33:23.655Z,9.60
2023-04-21T07:35:52.448Z,13.00
2023-04-21T07:38:28.558Z,14.30
2023-04-21T07:41:10.167Z,13.80
2023-04-21T07:43:42.678Z,12.20
2023-04-21T07:46:24.478Z,11.20
2023-04-21T07:49:09.852Z,12.70
2023-04-21T07:51:51.357Z,11.10
2023-04-21T07:54:32.285Z,12.60
2023-04-21T07:57:13.247Z,10.70
2023-04-21T07:59:57.390Z,11.10
2023-04-21T08:02:34.901Z,13.00
2023-04-21T08:05:09.493Z,10.10
2023-04-21T08:07:53.609Z,17.70
2023-04-21T08:10:27.346Z,17.10
2023-04-21T08:13:03.188Z,16.60
2023-04-21T08:15:51.099Z,12.60
2023-04-21T08:18:29.176Z,11.30
2023-04-21T08:21:20.400Z,10.50
2023-04-21T08:24:12.784Z,9.70
2023-04-21T08:26:58.826Z,11.40
2023-04-21T08:29:55.697Z,11.90
2023-04-21T08:32:51.200Z,12.00
2023-04-21T08:35:29.795Z,8.60
2023-04-21T08:38:07.139Z,10.20
2023-04-21T08:40:55.468Z,10.50
2023-04-21T08:43:36.041Z,10.70
2023-04-21T08:46:09.005Z,14.40
2023-04-21T08:48:40.694Z,11.80
2023-04-21T08:51:22.929Z,15.90
2023-04-21T08:54:08.202Z,9.80
2023-04-21T08:57:04.559Z,9.80
2023-04-21T08:59:52.664Z,12.30
2023-04-21T09:02:37.421Z,12.90
2023-04-21T09:05:09.437Z,8.80
2023-04-21T09:07:42.000Z,16.70
2023-04-21T09:10:14.653Z,20.40
2023-04-21T09:12:58.177Z,10.90
2023-04-21T09:15:39.871Z,9.90
2023-04-21T09:18:20.978Z,9.70
2023-04-21T09:21:07.725Z,9.80
2023-04-21T09:23:58.485Z,10.10
2023-04-21T09:26:46.319Z,12.80
2023-04-21T09:29:33.719Z,10.00
2023-04-21T09:32:11.799Z,11.10
2023-04-21T09:34:55.387Z,9.70
2023-04-21T09:37:44.245Z,9.60
2023-04-21T09:40:54.026Z,14.50
2023-04-21T09:43:35.012Z,7.80
2023-04-21T09:46:14.775Z,21.30
2023-04-21T09:49:01.953Z,7.70
2023-04-21T09:52:05.772Z,10.40
2023-04-21T09:54:37.149Z,9.20
2023-04-21T09:57:10.883Z,9.80
2023-04-21T09:59:55.900Z,15.60
2023-04-21T10:02:48.267Z,9.60
2023-04-21T10:05:31.577Z,10.00
2023-04-21T10:08:06.616Z,13.00
2023-04-21T10:10:38.722Z,12.20
2023-04-21T10:13:18.792Z,7.80
2023-04-21T10:16:04.354Z,8.50
2023-04-21T10:18:53.964Z,10.80
2023-04-21T10:21:30.143Z,9.70
2023-04-21T10:24:06.750Z,8.90
2023-04-21T10:26:38.454Z,9.00
2023-04-21T10:29:16.027Z,4.90
2023-04-21T10:31:47.746Z,5.70
2023-04-21T10:34:19.082Z,6.60
2023-04-21T10:37:12.483Z,7.40
2023-04-21T10:40:10.409Z,9.80
2023-04-21T10:42:44.583Z,4.70
2023-04-21T10:45:14.012Z,5.00
2023-04-21T10:47:52.513Z,5.60
2023-04-21T10:50:42.035Z,9.20
2023-04-21T10:53:26.360Z,6.00
2023-04-21T10:55:55.997Z,11.80
2023-04-21T10:58:29.454Z,6.50
2023-04-21T11:01:03.100Z,10.70
2023-04-21T11:03:36.196Z,8.20
2023-04-21T11:06:17.770Z,6.70
2023-04-21T11:08:58.575Z,11.90
2023-04-21T11:11:42.936Z,13.60
2023-04-21T11:14:25.507Z,5.50
2023-04-21T11:16:58.194Z,6.00
2023-04-21T11:19:27.770Z,8.50
2023-04-21T11:21:55.974Z,4.50
2023-04-21T11:24:24.696Z,11.30
2023-04-21T11:27:12.181Z,7.30
2023-04-21T11:29:45.887Z,13.40
2023-04-21T11:32:16.362Z,10.40
2023-04-21T11:34:46.832Z,7.70
2023-04-21T11:37:27.300Z,8.70
2023-04-21T11:40:00.708Z,6.50
2023-04-21T11:42:30.156Z,17.70
2023-04-21T11:45:00.896Z,5.40
2023-04-21T11:47:29.306Z,9.50
2023-04-21T11:50:01.903Z,5.40
2023-04-21T11:52:39.156Z,6.90
2023-04-21T11:55:18.600Z,5.80
2023-04-21T11:57:53.402Z,5.30
2023-04-21T12:00:24.527Z,6.00
2023-04-21T12:03:00.762Z,4.30
2023-04-21T12:05:39.340Z,3.40
2023-04-21T12:08:18.212Z,4.10
2023-04-21T12:10:59.246Z,10.00
2023-04-21T12:13:38.580Z,7.00
2023-04-21T12:16:33.844Z,5.40
2023-04-21T12:19:07.706Z,6.00
2023-04-21T12:21:39.836Z,5.60
2023-04-21T12:24:16.749Z,5.20
2023-04-21T12:26:54.651Z,7.80
2023-04-21T12:29:35.554Z,8.70
2023-04-21T12:32:12.866Z,4.80
2023-04-21T12:34:50.794Z,6.00
2023-04-21T12:37:20.211Z,9.10
2023-04-21T12:39:50.897Z,6.00
2023-04-21T12:42:23.486Z,5.10
2023-04-21T12:44:57.392Z,5.20
2023-04-21T12:47:32.511Z,9.40
2023-04-21T12:50:10.288Z,7.40
2023-04-21T12:52:39.826Z,5.40
2023-04-21T12:55:14.739Z,6.00
2023-04-21T12:57:48.194Z,15.70
2023-04-21T13:00:24.392Z,5.40
2023-04-21T13:02:59.973Z,4.30
2023-04-21T13:05:38.820Z,4.70
2023-04-21T13:08:08.018Z,4.40
2023-04-21T13:10:45.776Z,10.60
2023-04-21T13:13:14.857Z,5.20
2023-04-21T13:15:51.884Z,5.10
2023-04-21T13:18:20.793Z,10.30
2023-04-21T13:20:53.841Z,4.90
2023-04-21T13:23:28.404Z,6.00
2023-04-21T13:26:12.096Z,5.80
2023-04-21T13:28:44.499Z,5.90
2023-04-21T13:31:24.264Z,8.50
2023-04-21T13:34:04.953Z,10.00
2023-04-21T13:36:45.377Z,5.00
2023-04-21T13:39:24.732Z,5.60
2023-04-21T13:42:02.513Z,9.60
2023-04-21T13:44:37.925Z,6.00
2023-04-21T13:47:11.365Z,4.40
2023-04-21T13:49:50.213Z,8.80
2023-04-21T13:52:27.934Z,5.90
2023-04-21T13:55:17.775Z,6.90
2023-04-21T13:57:57.518Z,9.10
2023-04-21T14:00:36.045Z,12.90
2023-04-21T14:03:14.022Z,4.00
2023-04-21T14:05:43.760Z,10.10
2023-04-21T14:08:20.861Z,8.90
2023-04-21T14:10:51.873Z,5.20
2023-04-21T14:13:36.345Z,5.20
2023-04-21T14:16:19.721Z,3.90
2023-04-21T14:19:03.927Z,5.90
2023-04-21T14:22:22.810Z,8.60
2023-04-21T14:24:55.564Z,3.30
2023-04-21T14:27:57.544Z,3.00
2023-04-21T14:33:30.747Z,4.10
2023-04-21T14:36:12.467Z,7.80
2023-04-21T14:38:53.453Z,4.20
2023-04-21T14:41:38.066Z,4.00
2023-04-21T14:47:09.945Z,9.80
2023-04-21T14:49:55.245Z,6.30
2023-04-21T14:52:40.298Z,4.10
2023-04-21T14:55:24.165Z,6.90
2023-04-21T14:58:05.695Z,7.30
2023-04-21T15:00:50.175Z,4.80
2023-04-21T15:03:20.209Z,3.90
2023-04-21T15:05:55.777Z,6.20
2023-04-21T15:08:40.648Z,7.10
2023-04-21T15:11:13.044Z,8.20
2023-04-21T15:13:59.972Z,3.50
2023-04-21T15:16:36.266Z,5.10
2023-04-21T15:19:17.497Z,5.60
2023-04-21T15:22:25.272Z,5.90
2023-04-21T15:25:14.204Z,4.00
2023-04-21T15:28:14.163Z,5.50
2023-04-21T15:31:12.995Z,3.80
2023-04-21T15:34:08.148Z,8.90
2023-04-21T15:37:16.471Z,7.60
2023-04-21T15:39:57.303Z,3.60
2023-04-21T15:42:52.862Z,4.70
2023-04-21T15:45:44.784Z,8.00
2023-04-21T15:48:17.279Z,4.40
2023-04-21T15:51:04.192Z,8.00
2023-04-21T15:53:51.438Z,6.70
2023-04-21T16:00:10.436Z,3.80
2023-04-21T16:02:46.602Z,5.10
2023-04-21T16:08:30.354Z,6.20
2023-04-21T16:11:10.657Z,8.40
2023-04-21T16:14:04.266Z,4.80
2023-04-21T16:16:52.790Z,6.10
2023-04-21T16:19:31.798Z,3.70
2023-04-21T16:22:06.856Z,6.40
2023-04-21T16:24:47.782Z,4.50
2023-04-21T16:27:33.764Z,3.70
2023-04-21T16:30:13.751Z,5.40
2023-04-21T16:33:07.056Z,9.00
2023-04-21T16:35:46.108Z,7.80
2023-04-21T16:38:46.822Z,5.00
2023-04-21T16:41:32.053Z,4.90
2023-04-21T16:44:08.897Z,7.10
2023-04-21T16:46:47.338Z,7.20
2023-04-21T16:49:21.138Z,9.20
2023-04-21T16:52:07.289Z,7.30
2023-04-21T16:54:46.295Z,7.30
2023-04-21T16:57:35.173Z,4.70
2023-04-21T17:00:23.127Z,9.10
2023-04-21T17:03:05.476Z,4.40
2023-04-21T17:05:43.475Z,7.90
2023-04-21T17:08:31.941Z,5.20
2023-04-21T17:11:18.246Z,6.00
2023-04-21T17:14:16.747Z,7.80
2023-04-21T17:16:47.916Z,5.70
2023-04-21T17:19:24.864Z,5.60
2023-04-21T17:21:59.013Z,5.20
2023-04-21T17:24:53.560Z,6.50
2023-04-21T17:27:27.001Z,7.60
2023-04-21T17:30:00.292Z,8.40
2023-04-21T17:32:41.956Z,8.40
2023-04-21T17:35:13.848Z,9.30
2023-04-21T17:37:45.816Z,10.20
2023-04-21T17:40:26.683Z,9.00
2023-04-21T17:43:03.887Z,9.00
2023-04-21T17:45:33.264Z,11.80
2023-04-21T17:48:03.718Z,9.00
2023-04-21T17:50:44.776Z,9.70
2023-04-21T17:53:31.584Z,9.90
2023-04-21T17:56:05.315Z,14.10
2023-04-21T17:58:42.998Z,13.70
2023-04-21T18:01:13.206Z,12.40
2023-04-21T18:03:45.164Z,8.90
2023-04-21T18:06:31.499Z,9.40
2023-04-21T18:09:04.193Z,9.40
2023-04-21T18:11:36.693Z,13.40
2023-04-21T18:14:16.390Z,13.90
2023-04-21T18:16:47.129Z,21.20
2023-04-21T18:19:17.982Z,25.40
2023-04-21T18:21:46.925Z,22.70
2023-04-21T18:24:23.724Z,19.60
2023-04-21T18:32:27.856Z,29.00
2023-04-21T18:35:05.916Z,29.30
2023-04-21T18:37:40.101Z,34.60
2023-04-21T18:44:08.075Z,44.30
2023-04-21T18:46:42.606Z,43.30
2023-04-21T18:49:11.925Z,42.50
2023-04-21T18:51:45.090Z,41.30
2023-04-21T18:54:22.790Z,38.80
2023-04-21T18:57:02.715Z,38.60
2023-04-21T18:59:40.706Z,50.70
2023-04-21T19:02:18.349Z,45.40
2023-04-21T19:04:50.452Z,44.50
2023-04-21T19:07:23.620Z,55.40
2023-04-21T19:09:54.954Z,50.10
2023-04-21T19:12:28.726Z,52.50
2023-04-21T19:15:04.041Z,54.40
2023-04-21T19:17:33.272Z,57.60
2023-04-21T19:20:04.538Z,57.90
2023-04-21T19:22:42.348Z,67.70
2023-04-21T19:25:19.197Z,54.20
2023-04-21T19:27:57.536Z,64.40
2023-04-21T19:30:31.822Z,64.60
2023-04-21T19:33:11.718Z,134.90
2023-04-21T19:35:45.939Z,104.50
2023-04-21T19:38:24.169Z,75.70
2023-04-21T19:41:09.025Z,61.30
2023-04-21T19:43:53.880Z,63.70
2023-04-21T19:46:29.248Z,73.60
2023-04-21T19:49:15.161Z,70.50
2023-04-21T19:51:44.440Z,74.50
2023-04-21T19:54:27.164Z,75.40
2023-04-21T19:57:02.005Z,78.60
2023-04-21T20:02:30.456Z,74.20
2023-04-21T20:05:04.455Z,68.20
2023-04-21T20:07:39.803Z,60.40
2023-04-21T20:10:19.135Z,64.00
2023-04-21T20:12:59.824Z,68.30
2023-04-21T20:15:29.060Z,69.90
2023-04-21T20:18:24.642Z,90.40
2023-04-21T20:20:58.460Z,76.10
2023-04-21T20:23:38.165Z,91.80
2023-04-21T20:26:13.648Z,86.50
2023-04-21T20:28:50.210Z,79.80
2023-04-21T20:31:28.989Z,85.70
2023-04-21T20:33:57.862Z,91.80
2023-04-21T20:36:35.982Z,83.00
2023-04-21T20:39:09.955Z,89.60
2023-04-21T20:41:45.716Z,89.30
2023-04-21T20:44:20.728Z,95.30
2023-04-21T20:47:01.583Z,93.90
2023-04-21T20:49:33.995Z,94.40
2023-04-21T20:52:08.002Z,107.30
2023-04-21T20:54:43.171Z,124.90
2023-04-21T20:57:18.349Z,139.20
2023-04-21T21:00:07.597Z,147.40
2023-04-21T21:02:42.124Z,140.30
2023-04-21T21:05:24.565Z,139.30
2023-04-21T21:07:58.688Z,136.40
2023-04-21T21:10:39.328Z,163.40
2023-04-21T21:13:19.676Z,145.30
2023-04-21T21:15:57.601Z,147.40
2023-04-21T21:18:34.190Z,134.30
2023-04-21T21:21:19.374Z,130.30
2023-04-21T21:23:51.235Z,115.70
2023-04-21T21:26:24.736Z,107.90
2023-04-21T21:29:07.068Z,118.60
2023-04-21T21:31:43.587Z,109.70
2023-04-21T21:34:20.465Z,104.60
2023-04-21T21:36:52.999Z,104.60
2023-04-21T21:39:23.455Z,111.20
2023-04-21T21:42:04.797Z,102.10
2023-04-21T21:44:42.351Z,99.50
2023-04-21T21:47:19.573Z,98.70
2023-04-21T21:49:50.613Z,102.70
2023-04-21T21:52:24.336Z,95.80
2023-04-21T21:54:56.524Z,100.80
2023-04-21T22:00:00.112Z,91.50
2023-04-21T22:02:35.932Z,90.80
2023-04-21T22:05:06.069Z,92.60
2023-04-21T22:07:44.411Z,105.60
2023-04-21T22:10:13.759Z,116.10
2023-04-21T22:12:47.262Z,115.50
2023-04-21T22:15:21.840Z,109.30
2023-04-21T22:17:53.873Z,104.00
2023-04-21T22:22:57.802Z,98.90
2023-04-21T22:25:31.864Z,97.20
2023-04-21T22:28:12.048Z,93.10
2023-04-21T22:30:44.813Z,99.80
2023-04-21T22:33:13.902Z,98.20
2023-04-21T22:35:47.039Z,117.40
2023-04-21T22:38:23.782Z,101.80
2023-04-21T22:40:54.033Z,94.60
2023-04-21T22:43:28.925Z,92.50
2023-04-21T22:46:00.490Z,99.10
2023-04-21T22:48:29.325Z,92.90
2023-04-21T22:51:11.384Z,110.40
2023-04-21T22:53:40.717Z,98.10
2023-04-21T22:56:13.404Z,82.40
2023-04-21T22:58:48.937Z,78.90
2023-04-21T23:01:21.486Z,78.70
2023-04-21T23:03:58.800Z,81.60
2023-04-21T23:06:28.090Z,82.90
2023-04-21T23:09:01.406Z,78.20
2023-04-21T23:11:41.189Z,80.60
2023-04-21T23:14:11.598Z,76.10
2023-04-21T23:16:48.860Z,79.00
2023-04-21T23:19:24.148Z,71.60
2023-04-21T23:21:59.147Z,71.10
2023-04-21T23:24:33.332Z,73.10
2023-04-21T23:27:11.172Z,72.20
2023-04-21T23:29:40.639Z,70.60
2023-04-21T23:32:19.237Z,69.40
2023-04-21T23:34:54.486Z,74.10
2023-04-21T23:37:24.279Z,73.30
2023-04-21T23:39:53.136Z,74.30
2023-04-21T23:42:25.723Z,76.20
2023-04-21T23:45:00.000Z,75.00
2023-04-21T23:47:35.606Z,69.90
2023-04-21T23:50:07.615Z,72.20
2023-04-21T23:52:44.861Z,76.30
2023-04-21T23:55:18.173Z,79.50
2023-04-21T23:57:47.306Z,69.90
